sensor_id;sensor_type;location;lat;lon;timestamp;pressure;altitude;pressure_sealevel;temperature;humidity
10638;BME280;47007;49.252;8.904;2023-04-20T00:00:01;99855.22;;;4.66;100.00
10638;BME280;47007;49.252;8.904;2023-04-20T00:00:53;99860.34;;;4.58;100.00
10638;BME280;47007;49.252;8.904;2023-04-20T00:01:34;99852.38;;;4.50;100.00
10638;BME280;47007;49.252;8.904;2023-04-20T00:02:16;99835.75;;;4.32;100.00
10638;BME280;47007;49.252;8.904;2023-04-20T00:02:59;99854.59;;;4.45;100.00
10638;BME280;47007;49.252;8.904;2023-04-20T00:03:41;99856.00;;;4.40;100.00
10638;BME280;47007;49.252;8.904;2023-04-20T00:04:22;99817.56;;;4.11;100.00
10638;BME280;47007;49.252;8.904;2023-04-20T00:05:05;99851.75;;;4.29;100.00
10638;BME280;47007;49.252;8.904;2023-04-20T00:05:48;99853.84;;;4.25;100.00
10638;BME280;47007;49.252;8.904;2023-04-20T00:06:29;99853.28;;;4.22;100.00
10638;BME280;47007;49.252;8.904;2023-04-20T00:07:13;99843.94;;;4.19;100.00
10638;BME280;47007;49.252;8.904;2023-04-20T00:07:57;99765.91;;;3.65;100.00
10638;BME280;47007;49.252;8.904;2023-04-20T00:08:39;99848.06;;;4.12;100.00
10638;BME280;47007;49.252;8.904;2023-04-20T00:09:22;99849.59;;;4.15;100.00
10638;BME280;47007;49.252;8.904;2023-04-20T00:10:04;99850.41;;;4.15;100.00
10638;BME280;47007;49.252;8.904;2023-04-20T00:10:45;99830.16;;;4.08;100.00
10638;BME280;47007;49.252;8.904;2023-04-20T00:11:27;99847.66;;;4.17;100.00
10638;BME280;47007;49.252;8.904;2023-04-20T00:12:09;99850.97;;;4.19;100.00
10638;BME280;47007;49.252;8.904;2023-04-20T00:12:51;99843.94;;;4.19;100.00
10638;BME280;47007;49.252;8.904;2023-04-20T00:13:32;99843.63;;;4.22;100.00
10638;BME280;47007;49.252;8.904;2023-04-20T00:14:14;99841.69;;;4.24;100.00
10638;BME280;47007;49.252;8.904;2023-04-20T00:14:56;99839.88;;;4.25;100.00
10638;BME280;47007;49.252;8.904;2023-04-20T00:15:38;99841.66;;;4.34;100.00
10638;BME280;47007;49.252;8.904;2023-04-20T00:16:19;99839.44;;;4.39;100.00
10638;BME280;47007;49.252;8.904;2023-04-20T00:17:01;99839.03;;;4.44;100.00
10638;BME280;47007;49.252;8.904;2023-04-20T00:17:43;99839.03;;;4.44;100.00
10638;BME280;47007;49.252;8.904;2023-04-20T00:18:25;99834.28;;;4.47;100.00
10638;BME280;47007;49.252;8.904;2023-04-20T00:19:07;99829.19;;;4.46;100.00
10638;BME280;47007;49.252;8.904;2023-04-20T00:19:49;99837.47;;;4.51;100.00
10638;BME280;47007;49.252;8.904;2023-04-20T00:20:30;99835.66;;;4.51;100.00
10638;BME280;47007;49.252;8.904;2023-04-20T00:21:12;99835.66;;;4.51;100.00
10638;BME280;47007;49.252;8.904;2023-04-20T00:21:54;99814.56;;;4.43;100.00
10638;BME280;47007;49.252;8.904;2023-04-20T00:22:35;99831.25;;;4.52;100.00
10638;BME280;47007;49.252;8.904;2023-04-20T00:23:17;99799.09;;;4.40;100.00
10638;BME280;47007;49.252;8.904;2023-04-20T00:23:59;99810.97;;;4.44;100.00
10638;BME280;47007;49.252;8.904;2023-04-20T00:24:40;99827.25;;;4.48;100.00
10638;BME280;47007;49.252;8.904;2023-04-20T00:25:22;99827.22;;;4.57;100.00
10638;BME280;47007;49.252;8.904;2023-04-20T00:26:04;99828.03;;;4.58;100.00
10638;BME280;47007;49.252;8.904;2023-04-20T00:26:46;99822.50;;;4.61;100.00
10638;BME280;47007;49.252;8.904;2023-04-20T00:27:27;99828.56;;;4.61;100.00
10638;BME280;47007;49.252;8.904;2023-04-20T00:28:09;99831.19;;;4.61;100.00
10638;BME280;47007;49.252;8.904;2023-04-20T00:28:51;99820.56;;;4.63;100.00
10638;BME280;47007;49.252;8.904;2023-04-20T00:29:32;99817.00;;;4.54;100.00
10638;BME280;47007;49.252;8.904;2023-04-20T00:30:14;99824.56;;;4.67;100.00
10638;BME280;47007;49.252;8.904;2023-04-20T00:30:56;99813.50;;;4.63;100.00
10638;BME280;47007;49.252;8.904;2023-04-20T00:31:38;99821.94;;;4.67;100.00
10638;BME280;47007;49.252;8.904;2023-04-20T00:32:20;99814.19;;;4.65;100.00
10638;BME280;47007;49.252;8.904;2023-04-20T00:33:02;99796.53;;;4.58;100.00
10638;BME280;47007;49.252;8.904;2023-04-20T00:33:44;99802.59;;;4.58;100.00
10638;BME280;47007;49.252;8.904;2023-04-20T00:34:25;99814.34;;;4.64;100.00
10638;BME280;47007;49.252;8.904;2023-04-20T00:35:07;99808.41;;;4.62;100.00
10638;BME280;47007;49.252;8.904;2023-04-20T00:35:49;99748.50;;;4.20;100.00
10638;BME280;47007;49.252;8.904;2023-04-20T00:36:31;99810.66;;;4.57;100.00
10638;BME280;47007;49.252;8.904;2023-04-20T00:37:12;99795.47;;;4.51;100.00
10638;BME280;47007;49.252;8.904;2023-04-20T00:37:54;99797.69;;;4.46;100.00
10638;BME280;47007;49.252;8.904;2023-04-20T00:38:38;99792.47;;;4.36;100.00
10638;BME280;47007;49.252;8.904;2023-04-20T00:39:19;99801.31;;;4.35;100.00
10638;BME280;47007;49.252;8.904;2023-04-20T00:40:01;99786.34;;;4.18;100.00
10638;BME280;47007;49.252;8.904;2023-04-20T00:40:44;99806.75;;;4.24;100.00
10638;BME280;47007;49.252;8.904;2023-04-20T00:41:29;99801.41;;;4.16;100.00
10638;BME280;47007;49.252;8.904;2023-04-20T00:42:13;99792.03;;;4.04;100.00
10638;BME280;47007;49.252;8.904;2023-04-20T00:42:54;99799.22;;;4.02;100.00
10638;BME280;47007;49.252;8.904;2023-04-20T00:43:37;99791.78;;;3.97;100.00
10638;BME280;47007;49.252;8.904;2023-04-20T00:44:19;99794.00;;;3.92;100.00
10638;BME280;47007;49.252;8.904;2023-04-20T00:45:02;99755.16;;;3.68;100.00
10638;BME280;47007;49.252;8.904;2023-04-20T00:45:45;99785.34;;;3.82;100.00
10638;BME280;47007;49.252;8.904;2023-04-20T00:46:27;99791.81;;;3.87;100.00
10638;BME280;47007;49.252;8.904;2023-04-20T00:47:08;99785.88;;;3.85;100.00
10638;BME280;47007;49.252;8.904;2023-04-20T00:47:50;99798.56;;;3.90;100.00
10638;BME280;47007;49.252;8.904;2023-04-20T00:48:32;99763.13;;;3.76;100.00
10638;BME280;47007;49.252;8.904;2023-04-20T00:49:13;99791.78;;;3.97;100.00
10638;BME280;47007;49.252;8.904;2023-04-20T00:49:55;99787.50;;;3.96;100.00
10638;BME280;47007;49.252;8.904;2023-04-20T00:50:39;99790.53;;;4.01;100.00
10638;BME280;47007;49.252;8.904;2023-04-20T00:51:21;99781.00;;;4.00;100.00
10638;BME280;47007;49.252;8.904;2023-04-20T00:52:03;99791.09;;;4.05;100.00
10638;BME280;47007;49.252;8.904;2023-04-20T00:52:46;99775.78;;;3.90;100.00
10638;BME280;47007;49.252;8.904;2023-04-20T00:53:28;99790.81;;;4.08;100.00
10638;BME280;47007;49.252;8.904;2023-04-20T00:54:09;99757.03;;;3.95;100.00
10638;BME280;47007;49.252;8.904;2023-04-20T00:54:52;99767.75;;;4.02;100.00
10638;BME280;47007;49.252;8.904;2023-04-20T00:55:36;99783.88;;;4.16;100.00
10638;BME280;47007;49.252;8.904;2023-04-20T00:56:18;99779.19;;;4.10;100.00
10638;BME280;47007;49.252;8.904;2023-04-20T00:57:00;99786.50;;;4.16;100.00
10638;BME280;47007;49.252;8.904;2023-04-20T00:57:42;99726.69;;;3.73;100.00
10638;BME280;47007;49.252;8.904;2023-04-20T00:58:24;99778.91;;;4.13;100.00
10638;BME280;47007;49.252;8.904;2023-04-20T00:59:06;99778.34;;;4.10;100.00
10638;BME280;47007;49.252;8.904;2023-04-20T00:59:49;99712.25;;;3.69;100.00
10638;BME280;47007;49.252;8.904;2023-04-20T01:00:32;99749.56;;;3.90;100.00
10638;BME280;47007;49.252;8.904;2023-04-20T01:01:15;99772.72;;;4.05;100.00
10638;BME280;47007;49.252;8.904;2023-04-20T01:02:00;99777.97;;;4.05;100.00
10638;BME280;47007;49.252;8.904;2023-04-20T01:02:41;99778.25;;;4.02;100.00
10638;BME280;47007;49.252;8.904;2023-04-20T01:03:23;99781.00;;;4.00;100.00
10638;BME280;47007;49.252;8.904;2023-04-20T01:04:05;99774.94;;;4.00;100.00
10638;BME280;47007;49.252;8.904;2023-04-20T01:04:48;99772.31;;;4.00;100.00
10638;BME280;47007;49.252;8.904;2023-04-20T01:05:30;99772.16;;;4.01;100.00
10638;BME280;47007;49.252;8.904;2023-04-20T01:06:13;99762.78;;;3.98;100.00
10638;BME280;47007;49.252;8.904;2023-04-20T01:06:55;99777.28;;;4.03;100.00
10638;BME280;47007;49.252;8.904;2023-04-20T01:07:37;99759.47;;;3.96;100.00
10638;BME280;47007;49.252;8.904;2023-04-20T01:08:19;99766.66;;;4.04;100.00
10638;BME280;47007;49.252;8.904;2023-04-20T01:09:00;99771.75;;;4.06;100.00
10638;BME280;47007;49.252;8.904;2023-04-20T01:09:43;99769.00;;;4.07;100.00
10638;BME280;47007;49.252;8.904;2023-04-20T01:10:25;99772.44;;;4.08;100.00
10638;BME280;47007;49.252;8.904;2023-04-20T01:11:07;99767.19;;;4.08;100.00
10638;BME280;47007;49.252;8.904;2023-04-20T01:11:49;99751.19;;;4.01;100.00
10638;BME280;47007;49.252;8.904;2023-04-20T01:12:31;99765.25;;;4.10;100.00
10638;BME280;47007;49.252;8.904;2023-04-20T01:13:12;99626.16;;;3.28;100.00
10638;BME280;47007;49.252;8.904;2023-04-20T01:13:54;99743.91;;;3.95;100.00
10638;BME280;47007;49.252;8.904;2023-04-20T01:14:36;99766.38;;;4.07;100.00
10638;BME280;47007;49.252;8.904;2023-04-20T01:15:17;99769.13;;;4.06;100.00
10638;BME280;47007;49.252;8.904;2023-04-20T01:16:00;99764.16;;;4.03;100.00
10638;BME280;47007;49.252;8.904;2023-04-20T01:16:42;99754.22;;;3.96;100.00
10638;BME280;47007;49.252;8.904;2023-04-20T01:17:26;99487.03;;;2.28;100.00
10638;BME280;47007;49.252;8.904;2023-04-20T01:18:08;99760.16;;;3.98;100.00
10638;BME280;47007;49.252;8.904;2023-04-20T01:18:52;99745.56;;;3.86;100.00
10638;BME280;47007;49.252;8.904;2023-04-20T01:19:33;99756.84;;;3.96;100.00
10638;BME280;47007;49.252;8.904;2023-04-20T01:20:18;99713.06;;;3.70;100.00
10638;BME280;47007;49.252;8.904;2023-04-20T01:21:00;99747.91;;;3.89;100.00
10638;BME280;47007;49.252;8.904;2023-04-20T01:21:42;99753.72;;;3.93;100.00
10638;BME280;47007;49.252;8.904;2023-04-20T01:22:24;99732.34;;;3.78;100.00
10638;BME280;47007;49.252;8.904;2023-04-20T01:23:06;99754.00;;;3.90;100.00
10638;BME280;47007;49.252;8.904;2023-04-20T01:23:48;99753.31;;;3.88;100.00
10638;BME280;47007;49.252;8.904;2023-04-20T01:24:30;99749.16;;;3.85;100.00
10638;BME280;47007;49.252;8.904;2023-04-20T01:25:13;99753.06;;;3.81;100.00
10638;BME280;47007;49.252;8.904;2023-04-20T01:25:55;99735.84;;;3.69;100.00
10638;BME280;47007;49.252;8.904;2023-04-20T01:26:36;99748.50;;;3.74;100.00
10638;BME280;47007;49.252;8.904;2023-04-20T01:27:21;99744.34;;;3.71;100.00
10638;BME280;47007;49.252;8.904;2023-04-20T01:28:02;99747.16;;;3.70;100.00
10638;BME280;47007;49.252;8.904;2023-04-20T01:28:45;99755.00;;;3.70;100.00
10638;BME280;47007;49.252;8.904;2023-04-20T01:29:29;99737.78;;;3.67;100.00
10638;BME280;47007;49.252;8.904;2023-04-20T01:30:11;99739.44;;;3.68;100.00
10638;BME280;47007;49.252;8.904;2023-04-20T01:30:52;99750.03;;;3.76;100.00
10638;BME280;47007;49.252;8.904;2023-04-20T01:31:34;99740.38;;;3.77;100.00
10638;BME280;47007;49.252;8.904;2023-04-20T01:32:16;99745.19;;;3.72;100.00
10638;BME280;47007;49.252;8.904;2023-04-20T01:32:57;99733.06;;;3.71;100.00
10638;BME280;47007;49.252;8.904;2023-04-20T01:33:39;99730.72;;;3.68;100.00
10638;BME280;47007;49.252;8.904;2023-04-20T01:34:21;99737.19;;;3.73;100.00
10638;BME280;47007;49.252;8.904;2023-04-20T01:35:03;99741.59;;;3.73;100.00
10638;BME280;47007;49.252;8.904;2023-04-20T01:35:45;99738.56;;;3.77;100.00
10638;BME280;47007;49.252;8.904;2023-04-20T01:36:26;99738.72;;;3.76;100.00
10638;BME280;47007;49.252;8.904;2023-04-20T01:37:08;99735.94;;;3.77;100.00
10638;BME280;47007;49.252;8.904;2023-04-20T01:37:51;99737.97;;;3.83;100.00
10638;BME280;47007;49.252;8.904;2023-04-20T01:38:33;99741.03;;;3.88;100.00
10638;BME280;47007;49.252;8.904;2023-04-20T01:39:16;99730.53;;;3.88;100.00
10638;BME280;47007;49.252;8.904;2023-04-20T01:39:58;99727.22;;;3.86;100.00
10638;BME280;47007;49.252;8.904;2023-04-20T01:40:40;99677.09;;;3.52;100.00
10638;BME280;47007;49.252;8.904;2023-04-20T01:41:21;99726.28;;;3.78;100.00
10638;BME280;47007;49.252;8.904;2023-04-20T01:42:04;99736.09;;;3.76;100.00
10638;BME280;47007;49.252;8.904;2023-04-20T01:42:46;99732.53;;;3.67;100.00
10638;BME280;47007;49.252;8.904;2023-04-20T01:43:28;99728.13;;;3.58;100.00
10638;BME280;47007;49.252;8.904;2023-04-20T01:44:10;99726.63;;;3.55;100.00
10638;BME280;47007;49.252;8.904;2023-04-20T01:44:52;99733.66;;;3.55;100.00
10638;BME280;47007;49.252;8.904;2023-04-20T01:45:34;99719.03;;;3.52;100.00
10638;BME280;47007;49.252;8.904;2023-04-20T01:46:16;99727.59;;;3.54;100.00
10638;BME280;47007;49.252;8.904;2023-04-20T01:46:58;99727.84;;;3.51;100.00
10638;BME280;47007;49.252;8.904;2023-04-20T01:47:40;99717.09;;;3.54;100.00
10638;BME280;47007;49.252;8.904;2023-04-20T01:48:21;99723.44;;;3.52;100.00
10638;BME280;47007;49.252;8.904;2023-04-20T01:49:03;99707.59;;;3.44;100.00
10638;BME280;47007;49.252;8.904;2023-04-20T01:49:45;99719.31;;;3.49;100.00
10638;BME280;47007;49.252;8.904;2023-04-20T01:50:26;99706.91;;;3.42;100.00
10638;BME280;47007;49.252;8.904;2023-04-20T01:51:08;99716.00;;;3.38;100.00
10638;BME280;47007;49.252;8.904;2023-04-20T01:51:50;99627.59;;;2.93;100.00
10638;BME280;47007;49.252;8.904;2023-04-20T01:52:31;99709.81;;;3.39;100.00
10638;BME280;47007;49.252;8.904;2023-04-20T01:53:13;99711.75;;;3.37;100.00
10638;BME280;47007;49.252;8.904;2023-04-20T01:53:55;99710.53;;;3.31;100.00
10638;BME280;47007;49.252;8.904;2023-04-20T01:54:36;99708.31;;;3.27;100.00
10638;BME280;47007;49.252;8.904;2023-04-20T01:55:18;99698.66;;;3.27;100.00
10638;BME280;47007;49.252;8.904;2023-04-20T01:56:00;99704.59;;;3.29;100.00
10638;BME280;47007;49.252;8.904;2023-04-20T01:56:42;99674.00;;;3.10;100.00
10638;BME280;47007;49.252;8.904;2023-04-20T01:57:24;99695.47;;;3.23;100.00
10638;BME280;47007;49.252;8.904;2023-04-20T01:58:05;99702.09;;;3.28;100.00
10638;BME280;47007;49.252;8.904;2023-04-20T01:58:47;99701.56;;;3.24;100.00
10638;BME280;47007;49.252;8.904;2023-04-20T01:59:29;99705.81;;;3.25;100.00
10638;BME280;47007;49.252;8.904;2023-04-20T02:00:12;99660.34;;;2.97;100.00
10638;BME280;47007;49.252;8.904;2023-04-20T02:00:57;99691.22;;;3.22;100.00
10638;BME280;47007;49.252;8.904;2023-04-20T02:01:40;99683.53;;;3.21;100.00
10638;BME280;47007;49.252;8.904;2023-04-20T02:02:22;99700.88;;;3.32;100.00
10638;BME280;47007;49.252;8.904;2023-04-20T02:03:03;99708.59;;;3.33;100.00
10638;BME280;47007;49.252;8.904;2023-04-20T02:03:46;99693.56;;;3.25;100.00
10638;BME280;47007;49.252;8.904;2023-04-20T02:04:30;99709.69;;;3.31;100.00
10638;BME280;47007;49.252;8.904;2023-04-20T02:05:11;99698.69;;;3.17;100.00
10638;BME280;47007;49.252;8.904;2023-04-20T02:05:53;99717.00;;;3.17;100.00
10638;BME280;47007;49.252;8.904;2023-04-20T02:06:35;99713.28;;;3.10;100.00
10638;BME280;47007;49.252;8.904;2023-04-20T02:07:16;99707.91;;;3.02;100.00
10638;BME280;47007;49.252;8.904;2023-04-20T02:07:58;99710.09;;;2.97;100.00
10638;BME280;47007;49.252;8.904;2023-04-20T02:08:40;99707.34;;;2.89;100.00
10638;BME280;47007;49.252;8.904;2023-04-20T02:09:22;99691.09;;;2.76;100.00
10638;BME280;47007;49.252;8.904;2023-04-20T02:10:03;99707.91;;;2.83;100.00
10638;BME280;47007;49.252;8.904;2023-04-20T02:10:45;99693.44;;;2.79;100.00
10638;BME280;47007;49.252;8.904;2023-04-20T02:11:27;99636.41;;;2.44;100.00
10638;BME280;47007;49.252;8.904;2023-04-20T02:12:08;99706.94;;;2.94;100.00
10638;BME280;47007;49.252;8.904;2023-04-20T02:12:53;99711.22;;;2.95;100.00
10638;BME280;47007;49.252;8.904;2023-04-20T02:13:35;99711.09;;;2.96;100.00
10638;BME280;47007;49.252;8.904;2023-04-20T02:14:17;99700.31;;;2.89;100.00
10638;BME280;47007;49.252;8.904;2023-04-20T02:14:58;99704.72;;;2.89;100.00
10638;BME280;47007;49.252;8.904;2023-04-20T02:15:40;99717.69;;;2.91;100.00
10638;BME280;47007;49.252;8.904;2023-04-20T02:16:24;99706.78;;;2.85;100.00
10638;BME280;47007;49.252;8.904;2023-04-20T02:17:06;99708.56;;;2.85;100.00
10638;BME280;47007;49.252;8.904;2023-04-20T02:17:48;99705.56;;;2.80;100.00
10638;BME280;47007;49.252;8.904;2023-04-20T02:18:33;99710.09;;;2.78;100.00
10638;BME280;47007;49.252;8.904;2023-04-20T02:19:14;99704.16;;;2.76;100.00
10638;BME280;47007;49.252;8.904;2023-04-20T02:19:57;99694.53;;;2.67;100.00
10638;BME280;47007;49.252;8.904;2023-04-20T02:20:39;99693.13;;;2.63;100.00
10638;BME280;47007;49.252;8.904;2023-04-20T02:21:21;99705.56;;;2.70;100.00
10638;BME280;47007;49.252;8.904;2023-04-20T02:22:03;99707.03;;;2.73;100.00
10638;BME280;47007;49.252;8.904;2023-04-20T02:22:44;99687.50;;;2.67;100.00
10638;BME280;47007;49.252;8.904;2023-04-20T02:23:26;99685.16;;;2.74;100.00
10638;BME280;47007;49.252;8.904;2023-04-20T02:24:09;99694.97;;;2.91;100.00
10638;BME280;47007;49.252;8.904;2023-04-20T02:24:50;99702.41;;;2.96;100.00
10638;BME280;47007;49.252;8.904;2023-04-20T02:25:32;99701.72;;;3.03;100.00
10638;BME280;47007;49.252;8.904;2023-04-20T02:26:14;99693.84;;;3.03;100.00
10638;BME280;47007;49.252;8.904;2023-04-20T02:26:57;99695.78;;;3.01;100.00
10638;BME280;47007;49.252;8.904;2023-04-20T02:27:39;99670.00;;;2.87;100.00
10638;BME280;47007;49.252;8.904;2023-04-20T02:28:20;99696.75;;;3.00;100.00
10638;BME280;47007;49.252;8.904;2023-04-20T02:29:02;99694.25;;;2.99;100.00
10638;BME280;47007;49.252;8.904;2023-04-20T02:29:44;99699.34;;;3.00;100.00
10638;BME280;47007;49.252;8.904;2023-04-20T02:30:27;99698.41;;;3.01;100.00
10638;BME280;47007;49.252;8.904;2023-04-20T02:31:09;99695.09;;;2.99;100.00
10638;BME280;47007;49.252;8.904;2023-04-20T02:31:51;99696.22;;;2.97;100.00
10638;BME280;47007;49.252;8.904;2023-04-20T02:32:33;99704.06;;;2.97;100.00
10638;BME280;47007;49.252;8.904;2023-04-20T02:33:15;99664.66;;;2.79;100.00
10638;BME280;47007;49.252;8.904;2023-04-20T02:33:57;99683.53;;;2.92;100.00
10638;BME280;47007;49.252;8.904;2023-04-20T02:34:41;99687.38;;;2.98;100.00
10638;BME280;47007;49.252;8.904;2023-04-20T02:35:22;99704.75;;;3.08;100.00
10638;BME280;47007;49.252;8.904;2023-04-20T02:36:04;99693.84;;;3.13;100.00
10638;BME280;47007;49.252;8.904;2023-04-20T02:36:46;99694.53;;;3.15;100.00
10638;BME280;47007;49.252;8.904;2023-04-20T02:37:29;99676.50;;;3.02;100.00
10638;BME280;47007;49.252;8.904;2023-04-20T02:38:11;99694.41;;;3.16;100.00
10638;BME280;47007;49.252;8.904;2023-04-20T02:38:53;99694.25;;;3.18;100.00
10638;BME280;47007;49.252;8.904;2023-04-20T02:39:34;99693.44;;;3.17;100.00
10638;BME280;47007;49.252;8.904;2023-04-20T02:40:16;99687.63;;;3.14;100.00
10638;BME280;47007;49.252;8.904;2023-04-20T02:40:57;99691.66;;;3.18;100.00
10638;BME280;47007;49.252;8.904;2023-04-20T02:41:40;99676.91;;;3.07;100.00
10638;BME280;47007;49.252;8.904;2023-04-20T02:42:21;99696.19;;;3.16;100.00
10638;BME280;47007;49.252;8.904;2023-04-20T02:43:03;99686.53;;;3.16;100.00
10638;BME280;47007;49.252;8.904;2023-04-20T02:43:47;99685.44;;;3.09;100.00
10638;BME280;47007;49.252;8.904;2023-04-20T02:44:28;99691.09;;;3.05;100.00
10638;BME280;47007;49.252;8.904;2023-04-20T02:45:10;99680.78;;;2.94;100.00
10638;BME280;47007;49.252;8.904;2023-04-20T02:45:53;99691.09;;;2.95;100.00
10638;BME280;47007;49.252;8.904;2023-04-20T02:46:36;99693.28;;;2.90;100.00
10638;BME280;47007;49.252;8.904;2023-04-20T02:47:19;99681.44;;;2.86;100.00
10638;BME280;47007;49.252;8.904;2023-04-20T02:48:00;99689.97;;;2.88;100.00
10638;BME280;47007;49.252;8.904;2023-04-20T02:48:44;99682.13;;;2.88;100.00
10638;BME280;47007;49.252;8.904;2023-04-20T02:49:26;99683.53;;;2.92;100.00
10638;BME280;47007;49.252;8.904;2023-04-20T02:50:08;99667.81;;;2.82;100.00
10638;BME280;47007;49.252;8.904;2023-04-20T02:51:07;99692.06;;;2.94;100.00
10638;BME280;47007;49.252;8.904;2023-04-20T02:51:55;99690.28;;;2.95;100.00
10638;BME280;47007;49.252;8.904;2023-04-20T02:52:36;99685.31;;;2.92;100.00
10638;BME280;47007;49.252;8.904;2023-04-20T02:53:18;99682.56;;;2.93;100.00
10638;BME280;47007;49.252;8.904;2023-04-20T02:54:06;99615.03;;;2.48;100.00
10638;BME280;47007;49.252;8.904;2023-04-20T02:54:49;99683.53;;;2.92;100.00
10638;BME280;47007;49.252;8.904;2023-04-20T02:55:31;99620.00;;;2.51;100.00
10638;BME280;47007;49.252;8.904;2023-04-20T02:56:17;99680.78;;;2.84;100.00
10638;BME280;47007;49.252;8.904;2023-04-20T02:57:04;99683.41;;;2.84;100.00
10638;BME280;47007;49.252;8.904;2023-04-20T02:57:46;99556.50;;;2.01;100.00
10638;BME280;47007;49.252;8.904;2023-04-20T02:58:29;99681.03;;;2.71;100.00
10638;BME280;47007;49.252;8.904;2023-04-20T02:59:32;99681.69;;;2.64;100.00
10638;BME280;47007;49.252;8.904;2023-04-20T03:00:19;99680.75;;;2.55;100.00
10638;BME280;47007;49.252;8.904;2023-04-20T03:01:13;99675.75;;;2.42;100.00
10638;BME280;47007;49.252;8.904;2023-04-20T03:01:54;99620.63;;;2.05;100.00
10638;BME280;47007;49.252;8.904;2023-04-20T03:02:38;99686.59;;;2.28;100.00
10638;BME280;47007;49.252;8.904;2023-04-20T03:03:21;99617.13;;;1.86;100.00
10638;BME280;47007;49.252;8.904;2023-04-20T03:04:02;99679.56;;;2.19;100.00
10638;BME280;47007;49.252;8.904;2023-04-20T03:04:47;99667.56;;;2.07;100.00
10638;BME280;47007;49.252;8.904;2023-04-20T03:05:35;99680.38;;;2.10;100.00
10638;BME280;47007;49.252;8.904;2023-04-20T03:06:17;99637.88;;;1.87;100.00
10638;BME280;47007;49.252;8.904;2023-04-20T03:07:07;99680.38;;;2.10;100.00
10638;BME280;47007;49.252;8.904;2023-04-20T03:07:51;99672.09;;;2.05;100.00
10638;BME280;47007;49.252;8.904;2023-04-20T03:08:33;99664.50;;;2.02;100.00
10638;BME280;47007;49.252;8.904;2023-04-20T03:09:27;99674.44;;;2.08;100.00
10638;BME280;47007;49.252;8.904;2023-04-20T03:10:32;99682.00;;;2.11;100.00
10638;BME280;47007;49.252;8.904;2023-04-20T03:11:25;99685.59;;;2.10;100.00
10638;BME280;47007;49.252;8.904;2023-04-20T03:12:06;99683.38;;;2.05;100.00
10638;BME280;47007;49.252;8.904;2023-04-20T03:13:08;99674.53;;;1.97;100.00
10638;BME280;47007;49.252;8.904;2023-04-20T03:14:03;99682.50;;;1.95;100.00
10638;BME280;47007;49.252;8.904;2023-04-20T03:14:45;99669.66;;;1.83;100.00
10638;BME280;47007;49.252;8.904;2023-04-20T03:15:27;99681.81;;;1.93;100.00
10638;BME280;47007;49.252;8.904;2023-04-20T03:16:18;99685.38;;;1.92;100.00
10638;BME280;47007;49.252;8.904;2023-04-20T03:17:04;99673.94;;;1.84;100.00
10638;BME280;47007;49.252;8.904;2023-04-20T03:17:45;99679.44;;;1.90;100.00
10638;BME280;47007;49.252;8.904;2023-04-20T03:18:28;99682.63;;;1.94;100.00
10638;BME280;47007;49.252;8.904;2023-04-20T03:19:10;99685.81;;;1.97;100.00
10638;BME280;47007;49.252;8.904;2023-04-20T03:19:51;99693.25;;;2.02;100.00
10638;BME280;47007;49.252;8.904;2023-04-20T03:20:34;99677.56;;;2.02;100.00
10638;BME280;47007;49.252;8.904;2023-04-20T03:21:16;99678.97;;;2.06;100.00
10638;BME280;47007;49.252;8.904;2023-04-20T03:21:58;99681.44;;;2.07;100.00
10638;BME280;47007;49.252;8.904;2023-04-20T03:22:40;99676.50;;;2.14;100.00
10638;BME280;47007;49.252;8.904;2023-04-20T03:23:22;99677.19;;;2.16;100.00
10638;BME280;47007;49.252;8.904;2023-04-20T03:24:04;99673.75;;;2.15;100.00
10638;BME280;47007;49.252;8.904;2023-04-20T03:24:47;99680.25;;;2.21;100.00
10638;BME280;47007;49.252;8.904;2023-04-20T03:25:54;99678.75;;;2.28;100.00
10638;BME280;47007;49.252;8.904;2023-04-20T03:26:47;99680.84;;;2.34;100.00
10638;BME280;47007;49.252;8.904;2023-04-20T03:27:32;99684.81;;;2.38;100.00
10638;BME280;47007;49.252;8.904;2023-04-20T03:28:20;99681.69;;;2.44;100.00
10638;BME280;47007;49.252;8.904;2023-04-20T03:29:02;99684.00;;;2.47;100.00
10638;BME280;47007;49.252;8.904;2023-04-20T03:29:44;99679.34;;;2.51;100.00
10638;BME280;47007;49.252;8.904;2023-04-20T03:30:25;99658.16;;;2.44;100.00
10638;BME280;47007;49.252;8.904;2023-04-20T03:31:14;99673.16;;;2.62;100.00
10638;BME280;47007;49.252;8.904;2023-04-20T03:31:55;99678.00;;;2.66;100.00
10638;BME280;47007;49.252;8.904;2023-04-20T03:32:37;99692.47;;;2.70;100.00
10638;BME280;47007;49.252;8.904;2023-04-20T03:33:19;99671.94;;;2.75;100.00
10638;BME280;47007;49.252;8.904;2023-04-20T03:34:01;99653.34;;;2.69;100.00
10638;BME280;47007;49.252;8.904;2023-04-20T03:34:46;99668.78;;;2.81;100.00
10638;BME280;47007;49.252;8.904;2023-04-20T03:35:28;99664.78;;;2.77;100.00
10638;BME280;47007;49.252;8.904;2023-04-20T03:36:10;99672.22;;;2.82;100.00
10638;BME280;47007;49.252;8.904;2023-04-20T03:36:54;99649.91;;;2.68;100.00
10638;BME280;47007;49.252;8.904;2023-04-20T03:37:36;99653.09;;;2.72;100.00
10638;BME280;47007;49.252;8.904;2023-04-20T03:38:19;99663.69;;;2.80;100.00
10638;BME280;47007;49.252;8.904;2023-04-20T03:39:02;99672.50;;;2.79;100.00
10638;BME280;47007;49.252;8.904;2023-04-20T03:39:44;99670.84;;;2.78;100.00
10638;BME280;47007;49.252;8.904;2023-04-20T03:40:26;99636.13;;;2.57;100.00
10638;BME280;47007;49.252;8.904;2023-04-20T03:41:08;99666.56;;;2.77;100.00
10638;BME280;47007;49.252;8.904;2023-04-20T03:41:49;99667.53;;;2.76;100.00
10638;BME280;47007;49.252;8.904;2023-04-20T03:42:31;99669.19;;;2.77;100.00
10638;BME280;47007;49.252;8.904;2023-04-20T03:43:13;99668.34;;;2.76;100.00
10638;BME280;47007;49.252;8.904;2023-04-20T03:43:56;99666.16;;;2.72;100.00
10638;BME280;47007;49.252;8.904;2023-04-20T03:44:38;99655.00;;;2.70;100.00
10638;BME280;47007;49.252;8.904;2023-04-20T03:45:19;99665.59;;;2.78;100.00
10638;BME280;47007;49.252;8.904;2023-04-20T03:46:03;99660.50;;;2.76;100.00
10638;BME280;47007;49.252;8.904;2023-04-20T03:46:44;99638.63;;;2.58;100.00